Time;durP1;ratioP1;P1;durP2;ratioP2;P2;SDS_P1;SDS_P2;PMS_P1;PMS_P2;Temp;Humidity;BMP_temperature;BMP_pressure;BME280_temperature;BME280_humidity;BME280_pressure;Samples;Min_cycle;Max_cycle;Signal;HPM_P1;HPM_P2
2023/06/25 00:01:22;;;;;;;3.25;1.80;;;20.50;99.90;;;;;;5021090;28;20036;-65
2023/06/25 00:03:49;;;;;;;2.35;1.75;;;20.40;99.90;;;;;;5032595;28;20040;-65
2023/06/25 00:06:15;;;;;;;2.70;1.90;;;20.40;99.90;;;;;;5047896;28;20048;-64
2023/06/25 00:08:41;;;;;;;2.17;1.95;;;20.30;99.90;;;;;;5055653;28;20040;-65
2023/06/25 00:11:06;;;;;;;2.10;1.95;;;20.30;99.90;;;;;;5052202;28;20474;-71
2023/06/25 00:13:32;;;;;;;1.90;1.60;;;20.30;99.90;;;;;;5051391;28;20071;-64
2023/06/25 00:15:58;;;;;;;1.92;1.73;;;20.30;99.90;;;;;;5052658;28;20064;-65
2023/06/25 00:18:26;;;;;;;1.80;1.70;;;20.30;99.90;;;;;;5053013;28;20040;-64
2023/06/25 00:20:55;;;;;;;1.95;1.60;;;20.30;99.90;;;;;;5054370;28;20051;-65
2023/06/25 00:23:21;;;;;;;1.73;1.63;;;20.30;99.90;;;;;;5055608;28;20033;-65
2023/06/25 00:25:46;;;;;;;2.08;1.80;;;20.30;99.90;;;;;;5058504;28;20122;-64
2023/06/25 00:28:12;;;;;;;1.80;1.70;;;20.20;99.90;;;;;;5049375;28;20040;-64
2023/06/25 00:30:38;;;;;;;1.55;1.45;;;20.20;99.90;;;;;;5054921;28;20043;-65
2023/06/25 00:33:04;;;;;;;3.25;2.03;;;20.10;99.90;;;;;;5053961;28;20029;-65
2023/06/25 00:35:50;;;;;;;2.00;1.83;;;20.10;99.90;;;;;;5055505;28;20036;-65
2023/06/25 00:38:16;;;;;;;2.85;1.77;;;20.00;99.90;;;;;;5050207;28;20669;-65
2023/06/25 00:40:42;;;;;;;2.45;2.25;;;20.00;99.90;;;;;;5055013;28;20043;-65
2023/06/25 00:43:08;;;;;;;2.25;1.90;;;19.90;99.90;;;;;;5055598;28;20900;-65
2023/06/25 00:45:34;;;;;;;3.08;1.90;;;20.00;99.90;;;;;;5054215;28;20048;-65
2023/06/25 00:48:01;;;;;;;4.20;1.85;;;20.00;99.90;;;;;;5050733;28;20598;-70
2023/06/25 00:50:27;;;;;;;2.65;2.03;;;19.90;99.90;;;;;;5040660;28;20048;-65
2023/06/25 00:52:56;;;;;;;1.90;1.80;;;19.90;99.90;;;;;;5050524;28;20036;-65
2023/06/25 00:55:22;;;;;;;3.08;1.80;;;19.90;99.90;;;;;;5054674;28;20048;-65
2023/06/25 00:57:48;;;;;;;1.58;1.48;;;19.90;99.90;;;;;;5053854;28;20040;-65
2023/06/25 01:00:14;;;;;;;1.65;1.55;;;19.90;99.90;;;;;;5059159;28;20425;-65
2023/06/25 01:03:26;;;;;;;2.35;1.80;;;19.90;99.90;;;;;;5054973;28;20043;-65
2023/06/25 01:06:04;;;;;;;1.53;1.43;;;20.00;99.90;;;;;;5044261;28;20045;-65
2023/06/25 01:08:32;;;;;;;2.90;1.70;;;20.10;99.90;;;;;;5037225;28;20445;-65
2023/06/25 01:10:57;;;;;;;2.35;1.80;;;20.10;99.90;;;;;;5059435;28;20131;-65
2023/06/25 01:13:23;;;;;;;1.70;1.60;;;20.20;99.90;;;;;;5062569;28;20052;-65
2023/06/25 01:15:49;;;;;;;2.00;1.80;;;20.20;99.90;;;;;;5060717;28;20382;-65
2023/06/25 01:18:15;;;;;;;2.60;1.60;;;20.20;99.90;;;;;;5040419;28;20037;-65
2023/06/25 01:20:41;;;;;;;1.83;1.67;;;20.20;99.90;;;;;;5058404;28;20040;-65
2023/06/25 01:23:10;;;;;;;2.03;1.83;;;20.20;99.90;;;;;;5056721;28;20041;-65
2023/06/25 01:25:36;;;;;;;1.77;1.67;;;20.20;99.90;;;;;;5060512;28;20025;-70
2023/06/25 01:28:02;;;;;;;3.28;1.90;;;20.20;99.90;;;;;;5054948;28;20032;-70
2023/06/25 01:30:31;;;;;;;1.50;1.40;;;20.20;99.90;;;;;;5055406;28;20104;-71
2023/06/25 01:32:57;;;;;;;2.13;1.80;;;20.30;99.90;;;;;;5057603;28;20453;-71
2023/06/25 01:35:24;;;;;;;3.20;1.70;;;20.30;99.90;;;;;;5050518;28;20430;-71
2023/06/25 01:37:50;;;;;;;2.00;1.90;;;20.30;99.90;;;;;;5055883;28;21074;-72
2023/06/25 01:40:16;;;;;;;1.80;1.70;;;20.30;99.90;;;;;;5058314;28;20047;-71
2023/06/25 01:42:43;;;;;;;2.28;1.70;;;20.30;99.90;;;;;;5058731;28;20512;-71
2023/06/25 01:45:09;;;;;;;3.10;1.75;;;20.30;99.90;;;;;;5056096;28;20713;-71
2023/06/25 01:47:36;;;;;;;1.60;1.50;;;20.30;99.90;;;;;;5054594;28;20036;-71
2023/06/25 01:50:02;;;;;;;1.63;1.48;;;20.40;99.90;;;;;;5054265;28;20086;-72
2023/06/25 01:52:28;;;;;;;1.90;1.75;;;20.40;99.90;;;;;;5061396;28;20031;-72
2023/06/25 01:54:54;;;;;;;2.45;1.67;;;20.40;99.90;;;;;;5054094;28;20048;-72
2023/06/25 01:57:21;;;;;;;5.20;1.73;;;20.30;99.90;;;;;;5053280;28;20029;-71
2023/06/25 01:59:46;;;;;;;1.92;1.73;;;20.40;99.90;;;;;;5055975;28;20037;-71
2023/06/25 02:02:12;;;;;;;2.25;1.80;;;20.30;99.90;;;;;;5056707;28;21938;-71
2023/06/25 02:04:38;;;;;;;3.42;2.00;;;20.40;99.90;;;;;;5043895;28;20119;-71
2023/06/25 02:07:04;;;;;;;2.97;1.90;;;20.40;99.90;;;;;;5043984;28;20721;-70
2023/06/25 02:09:29;;;;;;;2.38;1.50;;;20.40;99.90;;;;;;5034730;28;20048;-70
2023/06/25 02:11:55;;;;;;;2.60;2.17;;;20.40;99.90;;;;;;5036465;28;20494;-70
2023/06/25 02:14:21;;;;;;;1.98;1.52;;;20.40;99.90;;;;;;5039004;28;20029;-70
2023/06/25 02:16:46;;;;;;;2.30;1.80;;;20.40;99.90;;;;;;5039379;28;20033;-70
2023/06/25 02:19:12;;;;;;;2.10;1.98;;;20.40;99.90;;;;;;5038788;28;20037;-71
2023/06/25 02:21:38;;;;;;;2.55;2.00;;;20.30;99.90;;;;;;5029148;28;20039;-65
2023/06/25 02:24:04;;;;;;;1.98;1.77;;;20.30;99.90;;;;;;5027382;28;20044;-65
2023/06/25 02:26:29;;;;;;;2.03;1.85;;;20.40;99.90;;;;;;5025676;28;20029;-64
2023/06/25 02:28:55;;;;;;;1.70;1.60;;;20.40;99.90;;;;;;5026322;28;20041;-65
2023/06/25 02:31:21;;;;;;;2.75;1.65;;;20.40;99.90;;;;;;5029262;28;20053;-65
2023/06/25 02:33:47;;;;;;;2.83;1.85;;;20.40;99.90;;;;;;5015141;28;20065;-65
2023/06/25 02:36:12;;;;;;;3.00;1.90;;;20.40;99.90;;;;;;5030939;28;20040;-65
2023/06/25 02:38:38;;;;;;;3.90;1.80;;;20.40;99.90;;;;;;5026586;28;20098;-65
2023/06/25 02:41:04;;;;;;;1.92;1.83;;;20.30;99.90;;;;;;5027548;28;20504;-71
2023/06/25 02:43:29;;;;;;;2.97;1.90;;;20.30;99.90;;;;;;5029660;28;20040;-71
2023/06/25 02:45:55;;;;;;;2.70;2.00;;;20.30;99.90;;;;;;5025710;28;20798;-70
2023/06/25 02:48:21;;;;;;;1.80;1.70;;;20.40;99.90;;;;;;5030302;28;20048;-71
2023/06/25 02:50:47;;;;;;;2.40;2.20;;;20.30;99.90;;;;;;5032110;28;20055;-71
2023/06/25 02:53:12;;;;;;;4.78;1.70;;;20.30;99.90;;;;;;5030357;28;20079;-71
2023/06/25 02:55:38;;;;;;;2.85;2.17;;;20.30;99.90;;;;;;5030697;28;20845;-71
2023/06/25 02:58:04;;;;;;;3.47;2.00;;;20.20;99.90;;;;;;5029147;28;20116;-71
2023/06/25 03:00:29;;;;;;;3.45;1.73;;;20.20;99.90;;;;;;5019272;28;20052;-71
2023/06/25 03:02:55;;;;;;;2.72;1.67;;;20.20;99.90;;;;;;5028609;28;20033;-71
2023/06/25 03:05:20;;;;;;;3.38;1.75;;;20.20;99.90;;;;;;5038603;28;20105;-71
2023/06/25 03:07:51;;;;;;;2.30;2.10;;;20.20;99.90;;;;;;5058355;28;20497;-70
2023/06/25 03:10:16;;;;;;;2.03;1.88;;;20.20;99.90;;;;;;5052599;28;20057;-71
2023/06/25 03:12:42;;;;;;;2.92;1.98;;;20.20;99.90;;;;;;5053926;28;20126;-71
2023/06/25 03:15:08;;;;;;;2.05;1.70;;;20.20;99.90;;;;;;5050352;28;20040;-71
2023/06/25 03:17:34;;;;;;;3.53;1.85;;;20.20;99.90;;;;;;5060605;28;20052;-71
2023/06/25 03:20:00;;;;;;;2.95;2.00;;;20.20;99.90;;;;;;5056054;28;20060;-71
2023/06/25 03:22:25;;;;;;;2.05;1.85;;;20.20;99.90;;;;;;5054544;28;20048;-71
2023/06/25 03:24:51;;;;;;;2.05;1.70;;;20.20;99.90;;;;;;5053808;28;20045;-71
2023/06/25 03:27:17;;;;;;;2.15;1.95;;;20.20;99.90;;;;;;5052478;28;20101;-71
2023/06/25 03:29:42;;;;;;;5.55;1.67;;;20.30;99.90;;;;;;5054378;28;20064;-70
2023/06/25 03:32:08;;;;;;;2.95;1.90;;;20.20;99.90;;;;;;5054033;28;20047;-70
2023/06/25 03:34:34;;;;;;;1.80;1.63;;;20.20;99.90;;;;;;5054573;28;20061;-70
2023/06/25 03:36:59;;;;;;;2.28;1.63;;;20.20;99.90;;;;;;5053307;28;20025;-71
2023/06/25 03:39:25;;;;;;;2.10;1.40;;;20.20;99.90;;;;;;5053764;28;20108;-70
2023/06/25 03:41:50;;;;;;;1.73;1.50;;;20.20;99.90;;;;;;5057495;28;20174;-70
2023/06/25 03:44:16;;;;;;;1.60;1.50;;;20.30;99.90;;;;;;5052109;28;20051;-70
2023/06/25 03:46:42;;;;;;;1.70;1.60;;;20.20;99.90;;;;;;5055231;28;20045;-70
2023/06/25 03:49:07;;;;;;;1.90;1.80;;;20.20;99.90;;;;;;5057095;28;20048;-70
2023/06/25 03:51:33;;;;;;;1.75;1.65;;;20.20;99.90;;;;;;5051593;28;20213;-65
2023/06/25 03:53:58;;;;;;;1.80;1.67;;;20.30;99.90;;;;;;5051981;28;20033;-65
2023/06/25 03:56:24;;;;;;;1.70;1.60;;;20.30;99.90;;;;;;5051246;28;20112;-65
2023/06/25 03:58:50;;;;;;;2.05;1.50;;;20.30;99.90;;;;;;5055602;28;20029;-65
2023/06/25 04:01:16;;;;;;;1.42;1.33;;;20.30;99.90;;;;;;5058177;28;20063;-65
2023/06/25 04:03:42;;;;;;;2.75;1.42;;;20.30;99.90;;;;;;5055653;28;20481;-64
2023/06/25 04:06:07;;;;;;;2.30;1.40;;;20.40;99.90;;;;;;5042725;28;20106;-65
2023/06/25 04:08:33;;;;;;;3.35;1.65;;;20.40;99.90;;;;;;5036301;28;20029;-64
2023/06/25 04:10:58;;;;;;;2.03;1.23;;;20.40;99.90;;;;;;5036226;28;20107;-65
2023/06/25 04:13:24;;;;;;;6.07;1.90;;;20.50;99.90;;;;;;5038961;28;20540;-65
2023/06/25 04:15:49;;;;;;;2.17;1.30;;;20.50;99.90;;;;;;5037944;28;20033;-65
2023/06/25 04:18:15;;;;;;;2.22;1.48;;;20.50;99.90;;;;;;5017761;28;20468;-65
2023/06/25 04:20:41;;;;;;;1.50;1.40;;;20.50;99.90;;;;;;5019731;28;20044;-65
2023/06/25 04:23:06;;;;;;;1.48;1.38;;;20.50;99.90;;;;;;5036879;28;20572;-65
2023/06/25 04:25:33;;;;;;;1.42;1.33;;;20.50;99.90;;;;;;5032420;28;20029;-64
2023/06/25 04:27:58;;;;;;;1.55;1.30;;;20.50;99.90;;;;;;5036438;28;20045;-65
2023/06/25 04:30:24;;;;;;;1.88;1.35;;;20.60;99.90;;;;;;5033239;28;20076;-71
2023/06/25 04:32:49;;;;;;;1.55;1.45;;;20.60;99.90;;;;;;5034579;28;20126;-70
2023/06/25 04:35:18;;;;;;;1.27;1.17;;;20.60;99.90;;;;;;5025977;28;20072;-71
2023/06/25 04:37:44;;;;;;;1.33;1.13;;;20.60;99.90;;;;;;5040297;28;20044;-71
2023/06/25 04:40:10;;;;;;;2.38;1.27;;;20.60;99.90;;;;;;5042239;28;20045;-71
2023/06/25 04:42:36;;;;;;;1.50;1.30;;;20.60;99.90;;;;;;5042116;28;20041;-71
2023/06/25 04:45:01;;;;;;;3.53;1.33;;;20.70;99.90;;;;;;5037353;28;20044;-71
2023/06/25 04:47:27;;;;;;;2.47;1.20;;;20.70;99.90;;;;;;5048855;28;20052;-65
2023/06/25 04:49:53;;;;;;;1.48;1.30;;;20.70;99.90;;;;;;5045554;28;20375;-65
2023/06/25 04:52:19;;;;;;;1.70;1.50;;;20.70;99.90;;;;;;5043603;28;20064;-65
2023/06/25 04:54:45;;;;;;;1.65;1.55;;;20.60;99.90;;;;;;5038017;28;20102;-65
2023/06/25 04:57:11;;;;;;;1.92;1.50;;;20.60;99.90;;;;;;5038156;28;20027;-65
2023/06/25 04:59:37;;;;;;;1.95;1.17;;;20.60;99.90;;;;;;5048450;28;20420;-65
2023/06/25 05:02:03;;;;;;;1.55;1.30;;;20.70;99.90;;;;;;5037282;28;20045;-65
2023/06/25 05:04:29;;;;;;;1.73;1.30;;;20.70;99.90;;;;;;5043480;28;20447;-65
2023/06/25 05:06:55;;;;;;;1.50;1.40;;;20.70;99.90;;;;;;5056490;28;20106;-65
2023/06/25 05:09:21;;;;;;;1.60;1.48;;;20.70;99.90;;;;;;5054139;28;20044;-65
2023/06/25 05:11:46;;;;;;;2.58;1.30;;;20.70;99.90;;;;;;5054725;28;20028;-64
2023/06/25 05:14:12;;;;;;;2.17;1.20;;;20.70;99.90;;;;;;5057644;28;20079;-65
2023/06/25 05:16:38;;;;;;;1.58;1.48;;;20.70;99.90;;;;;;5056440;28;20028;-65
2023/06/25 05:19:03;;;;;;;2.33;1.20;;;20.70;99.90;;;;;;5051526;28;20482;-65
2023/06/25 05:21:29;;;;;;;2.00;1.70;;;20.70;99.90;;;;;;5056982;28;20037;-65
2023/06/25 05:23:59;;;;;;;1.48;1.35;;;20.70;99.90;;;;;;5052904;28;20051;-65
2023/06/25 05:26:25;;;;;;;1.20;1.10;;;20.70;99.90;;;;;;5050559;28;20090;-71
2023/06/25 05:28:51;;;;;;;1.55;1.30;;;20.70;99.90;;;;;;5053528;28;20084;-72
2023/06/25 05:31:16;;;;;;;1.60;1.50;;;20.70;99.90;;;;;;5070623;28;20156;-71
2023/06/25 05:33:42;;;;;;;1.50;1.40;;;20.70;99.90;;;;;;5059306;28;20116;-71
2023/06/25 05:36:08;;;;;;;4.15;1.88;;;20.70;99.90;;;;;;5057449;28;20145;-71
2023/06/25 05:38:33;;;;;;;3.65;1.98;;;20.80;99.90;;;;;;5036391;28;20053;-71
2023/06/25 05:40:59;;;;;;;2.83;1.25;;;20.80;99.90;;;;;;5047261;28;20102;-71
2023/06/25 05:43:24;;;;;;;2.10;1.50;;;20.90;99.90;;;;;;5053121;28;20517;-71
2023/06/25 05:45:50;;;;;;;2.95;1.45;;;20.90;99.90;;;;;;5053290;28;20543;-71
2023/06/25 05:48:16;;;;;;;2.70;1.38;;;20.90;99.90;;;;;;5053038;28;20040;-71
2023/06/25 05:50:41;;;;;;;1.35;1.25;;;21.00;99.90;;;;;;5050423;28;20060;-65
2023/06/25 05:53:08;;;;;;;2.33;1.42;;;21.00;99.90;;;;;;5055634;28;20060;-70
2023/06/25 05:55:33;;;;;;;2.65;1.42;;;21.00;99.90;;;;;;5051789;28;20584;-69
2023/06/25 05:57:59;;;;;;;1.30;1.20;;;21.00;99.90;;;;;;5056723;28;20036;-70
2023/06/25 06:00:24;;;;;;;1.40;1.27;;;21.10;99.90;;;;;;5057239;28;20044;-69
2023/06/25 06:02:50;;;;;;;2.88;1.35;;;21.10;99.90;;;;;;5057430;28;20535;-69
2023/06/25 06:05:16;;;;;;;1.67;1.42;;;21.10;99.90;;;;;;5052011;28;22044;-71
2023/06/25 06:07:41;;;;;;;7.47;3.03;;;21.10;99.90;;;;;;5047044;28;20032;-70
2023/06/25 06:10:07;;;;;;;1.85;1.08;;;21.20;99.90;;;;;;5050712;28;20075;-69
2023/06/25 06:12:33;;;;;;;1.25;1.15;;;21.20;99.90;;;;;;5054362;28;20082;-70
2023/06/25 06:14:58;;;;;;;2.50;1.27;;;21.20;99.90;;;;;;5059708;28;20033;-69
2023/06/25 06:17:24;;;;;;;2.50;1.25;;;21.20;99.90;;;;;;5060251;28;20131;-70
2023/06/25 06:19:50;;;;;;;1.98;1.23;;;21.30;99.90;;;;;;5050620;28;20127;-65
2023/06/25 06:22:16;;;;;;;2.63;1.23;;;21.30;99.90;;;;;;5047972;28;20125;-64
2023/06/25 06:24:42;;;;;;;0.80;0.80;;;21.30;99.90;;;;;;5045052;28;20086;-65
2023/06/25 06:27:08;;;;;;;1.10;1.00;;;21.40;99.90;;;;;;5044545;28;20767;-65
2023/06/25 06:29:34;;;;;;;1.33;1.20;;;21.40;99.90;;;;;;5059673;28;20054;-65
2023/06/25 06:32:00;;;;;;;1.90;1.30;;;21.40;99.90;;;;;;5050551;28;20033;-64
2023/06/25 06:34:25;;;;;;;1.33;1.23;;;21.40;99.90;;;;;;5055110;28;20041;-64
2023/06/25 06:36:51;;;;;;;1.13;1.13;;;21.40;99.90;;;;;;5063372;28;20469;-64
2023/06/25 06:39:17;;;;;;;2.60;1.10;;;21.50;99.90;;;;;;5055806;28;20068;-64
2023/06/25 06:41:43;;;;;;;1.05;0.95;;;21.40;99.90;;;;;;5053215;28;20037;-64
2023/06/25 06:44:16;;;;;;;4.72;1.67;;;21.40;99.90;;;;;;5051777;28;20086;-64
2023/06/25 06:46:43;;;;;;;3.47;1.30;;;21.50;99.90;;;;;;5051024;28;20182;-65
2023/06/25 06:49:09;;;;;;;2.17;1.20;;;21.50;99.90;;;;;;5039699;28;20037;-64
2023/06/25 06:51:35;;;;;;;2.63;1.55;;;21.50;99.90;;;;;;5048155;28;20052;-64
2023/06/25 06:54:01;;;;;;;4.28;1.65;;;21.50;99.90;;;;;;5047897;28;20120;-65
2023/06/25 06:56:27;;;;;;;2.15;1.48;;;21.60;99.90;;;;;;5053736;28;20048;-64
2023/06/25 06:58:52;;;;;;;2.80;1.50;;;21.50;99.90;;;;;;5051529;28;20052;-64
2023/06/25 07:01:18;;;;;;;3.03;1.35;;;21.40;99.90;;;;;;5051200;28;20028;-65
2023/06/25 07:03:43;;;;;;;3.25;1.52;;;21.50;99.90;;;;;;5054286;28;20037;-65
2023/06/25 07:06:09;;;;;;;4.00;1.40;;;21.60;99.90;;;;;;5048701;28;20406;-64
2023/06/25 07:08:35;;;;;;;1.45;1.25;;;21.60;99.90;;;;;;5054397;28;20428;-64
2023/06/25 07:11:00;;;;;;;1.20;1.10;;;21.60;99.90;;;;;;5049402;28;20676;-64
2023/06/25 07:13:28;;;;;;;1.27;1.17;;;21.60;99.90;;;;;;5055935;28;20032;-64
2023/06/25 07:15:54;;;;;;;1.67;1.42;;;21.70;99.90;;;;;;5049975;28;20059;-64
2023/06/25 07:18:19;;;;;;;1.77;1.27;;;21.80;99.90;;;;;;5048124;28;20036;-64
2023/06/25 07:20:45;;;;;;;2.88;1.45;;;21.90;99.90;;;;;;5048773;28;20405;-65
2023/06/25 07:23:11;;;;;;;2.58;1.33;;;21.90;99.90;;;;;;5036545;28;20032;-65
2023/06/25 07:25:37;;;;;;;5.40;1.55;;;21.90;99.90;;;;;;5050589;28;20418;-65
2023/06/25 07:28:02;;;;;;;2.55;1.35;;;21.90;99.90;;;;;;5049980;28;20037;-71
2023/06/25 07:30:28;;;;;;;1.90;1.38;;;21.80;99.90;;;;;;5043227;28;20052;-65
2023/06/25 07:32:54;;;;;;;1.45;1.23;;;21.80;99.90;;;;;;5048967;28;20037;-64
2023/06/25 07:35:20;;;;;;;3.80;1.45;;;21.80;99.90;;;;;;5033546;28;20037;-65
2023/06/25 07:37:46;;;;;;;2.22;1.55;;;21.80;99.90;;;;;;5056578;28;20114;-65
2023/06/25 07:40:11;;;;;;;4.45;1.65;;;21.80;99.90;;;;;;5038798;28;20560;-65
2023/06/25 07:42:37;;;;;;;3.63;1.50;;;21.80;99.90;;;;;;5047624;28;20064;-65
2023/06/25 07:45:03;;;;;;;13.32;1.77;;;21.80;99.90;;;;;;5043643;28;20670;-71
2023/06/25 07:47:28;;;;;;;2.63;2.00;;;21.90;99.90;;;;;;5050880;28;20129;-66
2023/06/25 07:49:54;;;;;;;1.15;1.05;;;22.00;99.90;;;;;;5037202;28;20515;-66
2023/06/25 07:52:20;;;;;;;2.58;1.70;;;22.10;99.90;;;;;;5034602;28;20033;-75
2023/06/25 07:54:45;;;;;;;2.63;1.25;;;22.10;99.90;;;;;;5044243;28;20037;-72
2023/06/25 07:57:11;;;;;;;1.50;1.40;;;22.20;99.90;;;;;;5036695;28;20037;-71
2023/06/25 07:59:36;;;;;;;6.15;1.48;;;22.30;99.90;;;;;;5040182;28;20098;-71
2023/06/25 08:02:02;;;;;;;1.80;1.55;;;22.30;99.90;;;;;;5050451;28;20040;-72
2023/06/25 08:04:28;;;;;;;1.73;1.48;;;22.30;99.90;;;;;;5037548;28;20036;-71
2023/06/25 08:06:53;;;;;;;2.90;1.48;;;22.40;99.90;;;;;;5047311;28;20511;-71
2023/06/25 08:09:19;;;;;;;2.67;1.55;;;22.40;99.90;;;;;;5050155;28;20127;-72
2023/06/25 08:11:45;;;;;;;2.15;1.30;;;22.50;99.90;;;;;;5054108;28;20044;-71
2023/06/25 08:14:10;;;;;;;5.47;1.98;;;22.60;99.90;;;;;;5050261;28;20112;-72
2023/06/25 08:16:36;;;;;;;3.42;1.40;;;22.60;99.90;;;;;;5045392;28;20048;-71
2023/06/25 08:19:02;;;;;;;1.30;1.13;;;22.60;99.90;;;;;;5052127;28;20029;-71
2023/06/25 08:21:27;;;;;;;4.30;1.52;;;22.70;99.90;;;;;;5047534;28;20044;-71
2023/06/25 08:23:53;;;;;;;3.63;1.60;;;22.70;99.90;;;;;;5050932;28;20036;-71
2023/06/25 08:26:19;;;;;;;1.95;1.27;;;22.70;99.90;;;;;;5051429;28;20040;-70
2023/06/25 08:28:45;;;;;;;1.02;1.00;;;22.60;99.90;;;;;;5052555;28;20047;-65
2023/06/25 08:31:10;;;;;;;2.75;1.33;;;22.60;99.90;;;;;;5053185;28;20032;-65
2023/06/25 08:33:39;;;;;;;2.60;1.80;;;22.80;99.90;;;;;;5055632;28;20036;-65
2023/06/25 08:36:05;;;;;;;1.10;1.00;;;22.90;99.90;;;;;;5055774;28;20827;-65
2023/06/25 08:38:32;;;;;;;2.50;1.17;;;22.90;99.90;;;;;;5054846;28;20036;-65
2023/06/25 08:40:58;;;;;;;1.60;1.50;;;22.90;99.90;;;;;;5046557;28;20116;-65
2023/06/25 08:43:24;;;;;;;2.67;1.50;;;22.90;99.90;;;;;;5053648;28;20560;-65
2023/06/25 08:45:50;;;;;;;1.02;0.95;;;23.00;99.90;;;;;;5058226;28;20032;-66
2023/06/25 08:48:17;;;;;;;1.80;1.00;;;23.10;99.90;;;;;;5047120;28;20430;-66
2023/06/25 08:50:47;;;;;;;1.30;1.20;;;23.10;99.90;;;;;;5049107;28;20044;-66
2023/06/25 08:53:12;;;;;;;1.35;1.13;;;23.20;99.90;;;;;;5056920;28;20040;-66
2023/06/25 08:55:40;;;;;;;2.63;1.45;;;23.30;99.90;;;;;;5049257;28;20079;-65
2023/06/25 08:58:05;;;;;;;2.38;1.20;;;23.30;99.90;;;;;;5053506;28;20045;-65
2023/06/25 09:00:31;;;;;;;1.20;1.10;;;23.30;99.90;;;;;;5049995;28;20125;-65
2023/06/25 09:02:57;;;;;;;1.40;1.30;;;23.30;99.90;;;;;;5043719;28;20028;-65
2023/06/25 09:05:25;;;;;;;1.35;1.00;;;23.40;99.90;;;;;;5048668;28;20033;-66
2023/06/25 09:07:51;;;;;;;3.35;1.17;;;23.40;99.90;;;;;;5035383;28;20044;-65
2023/06/25 09:10:18;;;;;;;1.83;1.27;;;23.40;99.90;;;;;;5037175;28;20049;-65
2023/06/25 09:12:48;;;;;;;4.80;1.75;;;23.40;99.90;;;;;;5035620;28;20029;-65
2023/06/25 09:15:23;;;;;;;4.50;1.50;;;23.50;99.90;;;;;;5027314;28;20049;-65
2023/06/25 09:17:54;;;;;;;2.15;1.42;;;23.60;99.90;;;;;;5040234;28;20038;-65
2023/06/25 09:20:22;;;;;;;1.93;1.60;;;23.60;99.90;;;;;;5038890;28;20041;-65
2023/06/25 09:22:51;;;;;;;1.42;1.33;;;23.70;99.90;;;;;;5033723;28;20404;-68
2023/06/25 09:25:19;;;;;;;1.35;1.23;;;23.70;99.90;;;;;;5035577;28;21825;-68
2023/06/25 09:27:46;;;;;;;2.05;1.63;;;23.70;99.90;;;;;;5032482;28;20021;-68
2023/06/25 09:30:13;;;;;;;1.60;1.30;;;23.70;99.90;;;;;;5033770;28;20136;-68
2023/06/25 09:32:52;;;;;;;1.73;1.40;;;23.90;99.90;;;;;;5037097;28;20048;-69
2023/06/25 09:35:19;;;;;;;2.47;1.40;;;23.90;99.90;;;;;;5034773;28;20041;-69
2023/06/25 09:37:45;;;;;;;2.17;1.35;;;24.00;99.90;;;;;;5021679;28;20409;-68
2023/06/25 09:40:11;;;;;;;3.03;1.63;;;24.00;99.90;;;;;;5032200;28;20037;-69
2023/06/25 09:42:39;;;;;;;2.33;1.40;;;24.10;99.90;;;;;;5026013;28;20041;-69
2023/06/25 09:45:08;;;;;;;1.20;1.10;;;24.30;99.90;;;;;;5025958;28;20049;-65
2023/06/25 09:47:35;;;;;;;1.30;1.20;;;24.30;99.90;;;;;;5014438;28;20048;-64
2023/06/25 09:50:05;;;;;;;1.42;1.20;;;24.30;99.90;;;;;;5002799;28;20760;-65
2023/06/25 09:52:31;;;;;;;2.17;1.60;;;24.30;99.90;;;;;;5024636;28;20494;-63
2023/06/25 09:54:57;;;;;;;2.00;1.83;;;24.30;99.90;;;;;;5038266;28;20068;-64
2023/06/25 09:57:25;;;;;;;1.75;1.65;;;24.40;99.90;;;;;;5029127;28;20029;-65
2023/06/25 09:59:51;;;;;;;2.75;1.58;;;24.30;99.90;;;;;;5014007;28;20430;-65
2023/06/25 10:02:18;;;;;;;4.10;1.58;;;24.40;99.90;;;;;;5016506;28;20065;-69
2023/06/25 10:04:44;;;;;;;1.40;1.20;;;24.50;99.90;;;;;;5028851;28;20041;-69
2023/06/25 10:07:11;;;;;;;1.33;1.23;;;24.60;99.90;;;;;;5038307;28;20036;-70
2023/06/25 10:09:37;;;;;;;2.45;1.30;;;24.60;99.90;;;;;;5047551;28;20037;-68
2023/06/25 10:12:03;;;;;;;4.07;1.42;;;24.70;99.90;;;;;;5051948;28;20907;-69
2023/06/25 10:14:38;;;;;;;1.20;1.10;;;24.80;99.90;;;;;;5040534;28;20047;-69
2023/06/25 10:17:04;;;;;;;4.00;1.45;;;24.80;99.90;;;;;;5044272;28;20032;-70
2023/06/25 10:19:30;;;;;;;1.40;1.30;;;24.70;99.90;;;;;;5041949;28;20099;-70
2023/06/25 10:22:15;;;;;;;1.17;1.08;;;24.70;99.90;;;;;;5053639;28;20134;-70
2023/06/25 10:24:42;;;;;;;1.50;1.30;;;24.70;99.90;;;;;;5066680;28;20124;-71
2023/06/25 10:27:31;;;;;;;1.40;1.30;;;24.70;99.90;;;;;;5045793;28;20176;-70
2023/06/25 10:29:57;;;;;;;0.90;0.90;;;24.70;99.90;;;;;;5047138;28;20049;-68
2023/06/25 10:32:29;;;;;;;1.55;1.00;;;24.80;99.90;;;;;;5043253;28;20040;-68
2023/06/25 10:34:58;;;;;;;1.23;1.13;;;24.90;99.90;;;;;;5044253;28;20036;-68
2023/06/25 10:37:35;;;;;;;2.10;1.27;;;24.90;99.90;;;;;;5036459;28;20166;-69
2023/06/25 10:40:05;;;;;;;1.30;1.20;;;24.90;99.90;;;;;;5026136;28;20037;-65
2023/06/25 10:42:31;;;;;;;2.40;1.20;;;24.90;99.90;;;;;;5037068;28;20025;-66
2023/06/25 10:44:57;;;;;;;1.75;1.15;;;24.90;99.90;;;;;;5038190;28;20037;-65
2023/06/25 10:47:23;;;;;;;1.52;1.30;;;24.90;99.90;;;;;;5040363;28;20055;-64
2023/06/25 10:49:49;;;;;;;1.20;1.10;;;24.90;99.90;;;;;;5050395;28;20040;-66
2023/06/25 10:52:15;;;;;;;1.80;1.38;;;24.90;99.90;;;;;;5037039;28;20768;-65
2023/06/25 10:54:40;;;;;;;1.60;1.25;;;24.80;99.90;;;;;;5045427;28;20044;-65
2023/06/25 10:57:12;;;;;;;2.88;0.98;;;24.90;99.90;;;;;;5039485;28;20121;-65
2023/06/25 10:59:38;;;;;;;1.52;1.38;;;24.90;99.90;;;;;;5014056;28;20139;-65
2023/06/25 11:02:10;;;;;;;4.80;1.25;;;24.90;99.90;;;;;;5048136;28;20106;-65
2023/06/25 11:04:35;;;;;;;4.88;1.25;;;25.00;99.90;;;;;;5055928;28;20039;-65
2023/06/25 11:07:01;;;;;;;1.10;1.00;;;25.00;99.90;;;;;;5052129;28;20028;-64
2023/06/25 11:09:28;;;;;;;1.15;1.05;;;24.90;99.90;;;;;;5050118;28;20052;-65
2023/06/25 11:11:53;;;;;;;1.50;1.40;;;24.90;99.90;;;;;;5039927;28;20036;-64
2023/06/25 11:14:19;;;;;;;1.70;1.10;;;24.80;99.90;;;;;;5054650;28;20043;-64
2023/06/25 11:16:48;;;;;;;3.42;1.30;;;24.80;99.90;;;;;;5046014;28;20039;-66
2023/06/25 11:19:14;;;;;;;1.92;1.17;;;25.00;99.90;;;;;;5052583;28;20109;-67
2023/06/25 11:21:40;;;;;;;1.55;1.45;;;25.10;99.90;;;;;;5061281;28;20544;-66
2023/06/25 11:24:09;;;;;;;2.50;1.60;;;25.10;99.90;;;;;;5052684;28;20033;-66
2023/06/25 11:26:41;;;;;;;3.10;1.20;;;25.10;99.90;;;;;;5057660;28;20081;-66
2023/06/25 11:29:11;;;;;;;1.20;1.10;;;25.00;99.90;;;;;;5052123;28;20510;-67
2023/06/25 11:31:48;;;;;;;1.27;1.17;;;24.90;99.90;;;;;;5052060;28;20033;-69
2023/06/25 11:34:25;;;;;;;2.08;1.08;;;25.10;99.90;;;;;;5056258;28;20111;-67
2023/06/25 11:36:51;;;;;;;1.50;1.40;;;25.30;99.90;;;;;;5049651;28;20082;-67
2023/06/25 11:39:17;;;;;;;1.88;1.55;;;25.30;99.90;;;;;;5058317;28;20036;-67
2023/06/25 11:41:44;;;;;;;1.52;1.10;;;25.30;99.90;;;;;;5056454;28;20165;-68
2023/06/25 11:44:17;;;;;;;1.63;1.30;;;25.30;99.90;;;;;;5053702;28;20108;-68
2023/06/25 11:46:50;;;;;;;1.83;1.40;;;25.40;99.90;;;;;;5053409;28;21355;-67
2023/06/25 11:49:17;;;;;;;1.27;1.17;;;25.50;99.90;;;;;;5038034;28;20045;-68
2023/06/25 11:51:42;;;;;;;1.98;1.23;;;25.60;99.90;;;;;;5052462;28;20032;-65
2023/06/25 11:54:08;;;;;;;1.50;1.02;;;25.70;99.90;;;;;;5052696;28;20030;-65
2023/06/25 11:56:34;;;;;;;2.00;1.60;;;25.70;99.90;;;;;;5051995;28;20040;-66
2023/06/25 11:58:59;;;;;;;1.95;1.10;;;25.80;99.90;;;;;;5052799;28;20036;-65
2023/06/25 12:01:25;;;;;;;1.05;0.98;;;25.80;99.90;;;;;;5045155;28;20757;-66
2023/06/25 12:03:51;;;;;;;2.42;1.55;;;25.70;99.90;;;;;;5043896;28;20075;-65
2023/06/25 12:06:16;;;;;;;1.38;1.25;;;25.70;99.90;;;;;;5039436;28;20092;-65
2023/06/25 12:08:42;;;;;;;1.77;1.38;;;25.70;99.90;;;;;;5042062;28;20047;-66
2023/06/25 12:11:08;;;;;;;1.20;1.10;;;25.90;99.90;;;;;;5043300;28;21043;-65
2023/06/25 12:13:33;;;;;;;1.58;1.42;;;25.90;99.90;;;;;;5039245;28;20528;-65
2023/06/25 12:15:59;;;;;;;1.67;1.50;;;26.00;99.90;;;;;;5044246;28;20045;-65
2023/06/25 12:18:25;;;;;;;1.27;1.17;;;26.10;99.90;;;;;;5044088;28;20040;-65
2023/06/25 12:20:50;;;;;;;1.55;1.30;;;26.20;99.90;;;;;;5043928;28;20577;-66
2023/06/25 12:23:16;;;;;;;1.40;1.17;;;26.30;99.90;;;;;;5044930;28;20036;-66
2023/06/25 12:25:41;;;;;;;1.73;1.05;;;26.30;99.90;;;;;;5044641;28;20794;-66
2023/06/25 12:28:07;;;;;;;1.00;1.00;;;26.40;99.90;;;;;;5037024;28;20037;-65
2023/06/25 12:30:33;;;;;;;1.20;1.10;;;26.30;99.90;;;;;;5040032;28;20049;-65
2023/06/25 12:32:58;;;;;;;1.20;1.10;;;26.30;99.90;;;;;;5054321;28;20028;-66
2023/06/25 12:35:24;;;;;;;1.33;1.10;;;26.30;99.90;;;;;;5052960;28;20033;-65
2023/06/25 12:37:49;;;;;;;1.70;0.98;;;26.30;99.90;;;;;;5047154;28;20029;-65
2023/06/25 12:40:15;;;;;;;1.70;1.40;;;26.40;99.90;;;;;;5051621;28;20029;-65
2023/06/25 12:42:41;;;;;;;1.35;0.80;;;26.50;99.90;;;;;;5056751;28;20040;-65
2023/06/25 12:45:08;;;;;;;1.98;1.10;;;26.60;99.90;;;;;;5058666;28;20056;-64